createdAt,value
2018-03-11T00:00:50.325Z,19.32
2018-03-11T00:01:50.465Z,19.31
2018-03-11T00:02:50.314Z,19.31
2018-03-11T00:03:50.322Z,19.35
2018-03-11T00:04:50.507Z,19.31
2018-03-11T00:05:50.324Z,19.29
2018-03-11T00:06:50.350Z,19.33
2018-03-11T00:07:50.436Z,19.31
2018-03-11T00:08:50.469Z,19.31
2018-03-11T00:09:50.756Z,19.34
2018-03-11T00:10:50.545Z,19.31
2018-03-11T00:11:50.370Z,19.31
2018-03-11T00:12:50.332Z,19.31
2018-03-11T00:13:50.307Z,19.31
2018-03-11T00:14:50.335Z,19.29
2018-03-11T00:15:50.317Z,19.32
2018-03-11T00:16:50.320Z,19.27
2018-03-11T00:17:50.308Z,19.29
2018-03-11T00:18:50.317Z,19.31
2018-03-11T00:19:50.312Z,19.25
2018-03-11T00:20:50.338Z,19.29
2018-03-11T00:21:50.304Z,19.26
2018-03-11T00:22:50.299Z,19.24
2018-03-11T00:23:50.318Z,19.24
2018-03-11T00:24:50.305Z,19.27
2018-03-11T00:25:50.340Z,19.25
2018-03-11T00:26:50.311Z,19.24
2018-03-11T00:27:50.304Z,19.24
2018-03-11T00:28:50.306Z,19.25
2018-03-11T00:29:50.334Z,19.23
2018-03-11T00:30:50.305Z,19.25
2018-03-11T00:31:50.311Z,19.22
2018-03-11T00:32:50.319Z,19.19
2018-03-11T00:33:50.309Z,19.23
2018-03-11T00:34:50.329Z,19.2
2018-03-11T00:35:50.315Z,19.18
2018-03-11T00:36:50.333Z,19.18
2018-03-11T00:37:50.317Z,19.18
2018-03-11T00:38:50.310Z,19.18
2018-03-11T00:39:50.340Z,19.22
2018-03-11T00:40:50.305Z,19.18
2018-03-11T00:41:50.313Z,19.2
2018-03-11T00:42:50.305Z,19.21
2018-03-11T00:43:50.613Z,19.18
2018-03-11T00:44:50.298Z,19.17
2018-03-11T00:45:50.306Z,19.21
2018-03-11T00:46:50.302Z,19.17
2018-03-11T00:47:50.303Z,19.18
2018-03-11T00:48:50.315Z,19.19
2018-03-11T00:49:50.302Z,19.17
2018-03-11T00:50:50.295Z,19.17
2018-03-11T00:51:50.298Z,19.19
2018-03-11T00:52:50.303Z,19.14
2018-03-11T00:53:50.298Z,19.17
2018-03-11T00:54:50.364Z,19.16
2018-03-11T00:55:50.296Z,19.14
2018-03-11T00:56:50.308Z,19.15
2018-03-11T00:57:50.304Z,19.17
2018-03-11T00:58:50.301Z,19.14
2018-03-11T00:59:50.314Z,19.13
2018-03-11T01:00:50.301Z,19.17
2018-03-11T01:01:50.301Z,19.12
2018-03-11T01:02:50.299Z,19.1
2018-03-11T01:03:50.295Z,19.15
2018-03-11T01:04:50.325Z,19.1
2018-03-11T01:05:50.324Z,19.12
2018-03-11T01:06:50.303Z,19.08
2018-03-11T01:07:50.290Z,19.08
2018-03-11T01:08:50.292Z,19.1
2018-03-11T01:09:50.324Z,19.11
2018-03-11T01:10:50.304Z,19.1
2018-03-11T01:11:50.293Z,19.11
2018-03-11T01:12:50.290Z,19.12
2018-03-11T01:13:50.299Z,19.07
2018-03-11T01:14:50.317Z,19.05
2018-03-11T01:15:50.297Z,19.09
2018-03-11T01:16:50.304Z,19.01
2018-03-11T01:17:50.292Z,19.04
2018-03-11T01:18:50.291Z,19.07
2018-03-11T01:19:50.287Z,19.07
2018-03-11T01:20:50.326Z,19.04
2018-03-11T01:21:50.294Z,19.09
2018-03-11T01:22:50.283Z,19.01
2018-03-11T01:23:50.294Z,19.02
2018-03-11T01:24:50.312Z,19.07
2018-03-11T01:25:50.431Z,19.04
2018-03-11T01:26:50.308Z,19.05
2018-03-11T01:27:50.290Z,19.08
2018-03-11T01:28:50.308Z,19.04
2018-03-11T01:29:50.267Z,19
2018-03-11T01:30:50.306Z,19.03
2018-03-11T01:31:50.274Z,19.03
2018-03-11T01:32:50.317Z,19
2018-03-11T01:33:50.298Z,19.04
2018-03-11T01:34:50.394Z,18.97
2018-03-11T01:35:50.413Z,18.99
2018-03-11T01:36:50.307Z,19.03
2018-03-11T01:37:50.285Z,18.97
2018-03-11T01:38:50.281Z,18.99
2018-03-11T01:39:50.291Z,19.03
2018-03-11T01:40:50.314Z,18.97
2018-03-11T01:41:50.324Z,18.98
2018-03-11T01:42:50.287Z,19.01
2018-03-11T01:43:50.275Z,18.99
2018-03-11T01:44:50.284Z,18.97
2018-03-11T01:45:50.314Z,19.01
2018-03-11T01:46:50.284Z,18.95
2018-03-11T01:47:50.291Z,18.93
2018-03-11T01:48:50.285Z,18.98
2018-03-11T01:49:50.274Z,18.95
2018-03-11T01:50:50.546Z,18.94
2018-03-11T01:51:50.280Z,19
2018-03-11T01:52:50.266Z,18.93
2018-03-11T01:53:50.278Z,18.94
2018-03-11T01:54:50.289Z,18.98
2018-03-11T01:55:50.306Z,18.9
2018-03-11T01:56:50.270Z,18.9
2018-03-11T01:57:50.273Z,18.95
2018-03-11T01:58:50.280Z,18.93
2018-03-11T01:59:50.302Z,18.91
2018-03-11T02:00:50.282Z,18.95
2018-03-11T02:01:50.298Z,18.91
2018-03-11T02:02:50.270Z,18.91
2018-03-11T02:03:50.272Z,18.95
2018-03-11T02:04:50.309Z,18.92
2018-03-11T02:05:50.281Z,18.9
2018-03-11T02:06:50.271Z,18.95
2018-03-11T02:07:50.274Z,18.9
2018-03-11T02:08:50.310Z,18.92
2018-03-11T02:09:50.271Z,18.96
2018-03-11T02:10:50.279Z,18.89
2018-03-11T02:11:50.278Z,18.9
2018-03-11T02:12:50.323Z,18.93
2018-03-11T02:13:50.293Z,18.86
2018-03-11T02:14:50.282Z,18.88
2018-03-11T02:15:50.278Z,18.93
2018-03-11T02:16:50.285Z,18.88
2018-03-11T02:17:50.277Z,18.87
2018-03-11T02:18:50.289Z,18.91
2018-03-11T02:19:50.269Z,18.87
2018-03-11T02:20:50.277Z,18.89
2018-03-11T02:21:50.282Z,18.91
2018-03-11T02:22:50.281Z,18.86
2018-03-11T02:23:50.279Z,18.85
2018-03-11T02:24:50.294Z,18.92
2018-03-11T02:25:50.269Z,18.86
2018-03-11T02:26:50.307Z,18.86
2018-03-11T02:27:50.273Z,18.91
2018-03-11T02:28:50.250Z,18.89
2018-03-11T02:29:50.262Z,18.84
2018-03-11T02:30:50.551Z,18.88
2018-03-11T02:31:50.276Z,18.84
2018-03-11T02:32:50.274Z,18.81
2018-03-11T02:33:50.266Z,18.88
2018-03-11T02:34:50.274Z,18.82
2018-03-11T02:35:50.289Z,18.82
2018-03-11T02:36:50.266Z,18.85
2018-03-11T02:37:50.256Z,18.82
2018-03-11T02:38:50.271Z,18.8
2018-03-11T02:39:50.265Z,18.85
2018-03-11T02:40:50.268Z,18.83
2018-03-11T02:41:50.272Z,18.79
2018-03-11T02:42:50.268Z,18.83
2018-03-11T02:43:50.289Z,18.81
2018-03-11T02:44:50.280Z,18.81
2018-03-11T02:45:50.273Z,18.84
2018-03-11T02:46:50.257Z,18.79
2018-03-11T02:47:50.266Z,18.76
2018-03-11T02:48:50.304Z,18.82
2018-03-11T02:49:50.264Z,18.79
2018-03-11T02:50:50.271Z,18.8
2018-03-11T02:51:50.270Z,18.83
2018-03-11T02:52:50.269Z,18.77
2018-03-11T02:53:50.285Z,18.75
2018-03-11T02:54:50.268Z,18.82
2018-03-11T02:55:50.551Z,18.76
2018-03-11T02:56:50.260Z,18.76
2018-03-11T02:57:50.266Z,18.82
2018-03-11T02:58:50.257Z,18.76
2018-03-11T02:59:50.259Z,18.73
2018-03-11T03:00:50.280Z,18.8
2018-03-11T03:01:50.276Z,18.75
2018-03-11T03:02:50.256Z,18.74
2018-03-11T03:03:50.271Z,18.81
2018-03-11T03:04:50.258Z,18.77
2018-03-11T03:05:50.280Z,18.73
2018-03-11T03:06:50.312Z,18.79
2018-03-11T03:07:50.255Z,18.73
2018-03-11T03:08:50.255Z,18.73
2018-03-11T03:09:50.267Z,18.78
2018-03-11T03:10:50.268Z,18.72
2018-03-11T03:11:50.254Z,18.73
2018-03-11T03:12:50.282Z,18.78
2018-03-11T03:13:50.261Z,18.73
2018-03-11T03:14:50.259Z,18.71
2018-03-11T03:15:50.501Z,18.77
2018-03-11T03:16:50.257Z,18.73
2018-03-11T03:17:50.262Z,18.73
2018-03-11T03:18:50.248Z,18.77
2018-03-11T03:19:50.257Z,18.73
2018-03-11T03:20:50.540Z,18.71
2018-03-11T03:21:50.253Z,18.76
2018-03-11T03:22:50.258Z,18.7
2018-03-11T03:23:50.256Z,18.7
2018-03-11T03:24:50.228Z,18.74
2018-03-11T03:25:50.315Z,18.7
2018-03-11T03:26:50.255Z,18.7
2018-03-11T03:27:50.264Z,18.72
2018-03-11T03:28:50.248Z,18.68
2018-03-11T03:29:50.250Z,18.67
2018-03-11T03:30:50.321Z,18.73
2018-03-11T03:31:50.244Z,18.67
2018-03-11T03:32:50.249Z,18.66
2018-03-11T03:33:50.250Z,18.72
2018-03-11T03:34:50.241Z,18.67
2018-03-11T03:35:50.352Z,18.67
2018-03-11T03:36:50.369Z,18.73
2018-03-11T03:37:50.269Z,18.68
2018-03-11T03:38:50.249Z,18.66
2018-03-11T03:39:50.235Z,18.72
2018-03-11T03:40:50.249Z,18.66
2018-03-11T03:41:50.421Z,18.67
2018-03-11T03:42:50.283Z,18.71
2018-03-11T03:43:50.291Z,18.65
2018-03-11T03:44:50.340Z,18.64
2018-03-11T03:45:50.292Z,18.7
2018-03-11T03:46:50.380Z,18.66
2018-03-11T03:47:50.270Z,18.65
2018-03-11T03:48:50.301Z,18.73
2018-03-11T03:49:50.295Z,18.65
2018-03-11T03:50:50.242Z,18.64
2018-03-11T03:51:50.307Z,18.67
2018-03-11T03:52:50.320Z,18.68
2018-03-11T03:53:50.240Z,18.68
2018-03-11T03:54:50.238Z,18.72
2018-03-11T03:55:50.234Z,18.66
2018-03-11T03:56:50.276Z,18.66
2018-03-11T03:57:50.240Z,18.69
2018-03-11T03:58:50.239Z,18.65
2018-03-11T03:59:50.286Z,18.64
2018-03-11T04:00:50.235Z,18.69
2018-03-11T04:01:50.275Z,18.64
2018-03-11T04:02:50.238Z,18.62
2018-03-11T04:03:50.239Z,18.66
2018-03-11T04:04:50.234Z,18.64
2018-03-11T04:05:50.253Z,18.65
2018-03-11T04:06:50.238Z,18.67
2018-03-11T04:07:50.237Z,18.63
2018-03-11T04:08:50.247Z,18.61
2018-03-11T04:09:50.271Z,18.67
2018-03-11T04:10:50.254Z,18.63
2018-03-11T04:11:50.264Z,18.63
2018-03-11T04:12:50.237Z,18.67
2018-03-11T04:13:50.231Z,18.64
2018-03-11T04:14:50.235Z,18.6
2018-03-11T04:15:50.235Z,18.66
2018-03-11T04:16:50.234Z,18.63
2018-03-11T04:17:50.264Z,18.63
2018-03-11T04:18:50.240Z,18.67
2018-03-11T04:19:50.232Z,18.63
2018-03-11T04:20:50.245Z,18.6
2018-03-11T04:21:50.247Z,18.64
2018-03-11T04:22:50.247Z,18.64
2018-03-11T04:23:50.230Z,18.61
2018-03-11T04:24:50.230Z,18.65
2018-03-11T04:25:50.268Z,18.58
2018-03-11T04:26:50.232Z,18.57
2018-03-11T04:27:50.265Z,18.61
2018-03-11T04:28:50.224Z,18.58
2018-03-11T04:29:50.237Z,18.57
2018-03-11T04:30:50.245Z,18.6
2018-03-11T04:31:50.226Z,18.59
2018-03-11T04:32:50.516Z,18.59
2018-03-11T04:33:50.237Z,18.62
2018-03-11T04:34:50.237Z,18.55
2018-03-11T04:35:50.235Z,18.54
2018-03-11T04:36:50.230Z,18.6
2018-03-11T04:37:50.262Z,18.58
2018-03-11T04:38:50.244Z,18.55
2018-03-11T04:39:50.255Z,18.58
2018-03-11T04:40:50.234Z,18.54
2018-03-11T04:41:50.218Z,18.54
2018-03-11T04:42:50.224Z,18.59
2018-03-11T04:43:50.237Z,18.56
2018-03-11T04:44:50.251Z,18.52
2018-03-11T04:45:50.252Z,18.58
2018-03-11T04:46:50.236Z,18.52
2018-03-11T04:47:50.226Z,18.53
2018-03-11T04:48:50.242Z,18.58
2018-03-11T04:49:50.232Z,18.56
2018-03-11T04:50:50.229Z,18.53
2018-03-11T04:51:50.221Z,18.57
2018-03-11T04:52:50.233Z,18.54
2018-03-11T04:53:50.383Z,18.52
2018-03-11T04:54:50.231Z,18.58
2018-03-11T04:55:50.220Z,18.56
2018-03-11T04:56:50.197Z,18.56
2018-03-11T04:57:50.221Z,18.64
2018-03-11T04:58:50.257Z,18.58
2018-03-11T04:59:50.220Z,18.52
2018-03-11T05:00:50.214Z,18.6
2018-03-11T05:01:50.226Z,18.56
2018-03-11T05:02:50.233Z,18.57
2018-03-11T05:03:50.250Z,18.61
2018-03-11T05:04:50.218Z,18.53
2018-03-11T05:05:50.220Z,18.54
2018-03-11T05:06:50.216Z,18.59
2018-03-11T05:07:50.216Z,18.56
2018-03-11T05:08:50.226Z,18.54
2018-03-11T05:09:50.245Z,18.57
2018-03-11T05:10:50.211Z,18.54
2018-03-11T05:11:50.219Z,18.54
2018-03-11T05:12:50.211Z,18.59
2018-03-11T05:13:50.209Z,18.57
2018-03-11T05:14:50.284Z,18.56
2018-03-11T05:15:50.224Z,18.63
2018-03-11T05:16:50.208Z,18.6
2018-03-11T05:17:50.222Z,18.62
2018-03-11T05:18:50.216Z,18.68
2018-03-11T05:19:50.210Z,18.65
2018-03-11T05:20:50.274Z,18.66
2018-03-11T05:21:50.281Z,18.73
2018-03-11T05:22:50.220Z,18.71
2018-03-11T05:23:50.211Z,18.71
2018-03-11T05:24:50.215Z,18.77
2018-03-11T05:25:50.205Z,18.75
2018-03-11T05:26:50.243Z,18.76
2018-03-11T05:27:50.203Z,18.83
2018-03-11T05:28:50.234Z,18.81
2018-03-11T05:29:50.204Z,18.81
2018-03-11T05:30:50.220Z,18.88
2018-03-11T05:31:50.276Z,18.85
2018-03-11T05:32:50.208Z,18.87
2018-03-11T05:33:50.203Z,18.92
2018-03-11T05:34:50.216Z,18.89
2018-03-11T05:35:50.209Z,18.89
2018-03-11T05:36:50.309Z,18.96
2018-03-11T05:37:50.296Z,18.92
2018-03-11T05:38:50.224Z,18.93
2018-03-11T05:39:50.202Z,18.98
2018-03-11T05:40:50.219Z,18.96
2018-03-11T05:41:50.213Z,18.96
2018-03-11T05:42:50.208Z,19.03
2018-03-11T05:43:50.204Z,18.99
2018-03-11T05:44:50.206Z,19
2018-03-11T05:45:50.212Z,19.05
2018-03-11T05:46:50.238Z,19.03
2018-03-11T05:47:50.205Z,19.03
2018-03-11T05:48:50.199Z,19.09
2018-03-11T05:49:50.233Z,19.07
2018-03-11T05:50:50.200Z,19.07
2018-03-11T05:51:50.200Z,19.12
2018-03-11T05:52:50.227Z,19.1
2018-03-11T05:53:50.204Z,19.13
2018-03-11T05:54:50.240Z,19.18
2018-03-11T05:55:50.195Z,19.15
2018-03-11T05:56:50.204Z,19.15
2018-03-11T05:57:50.200Z,19.17
2018-03-11T05:58:50.209Z,19.18
2018-03-11T05:59:50.233Z,19.18
2018-03-11T06:00:50.204Z,19.23
2018-03-11T06:01:50.200Z,19.21
2018-03-11T06:02:50.214Z,19.21
2018-03-11T06:03:50.199Z,19.28
2018-03-11T06:04:50.229Z,19.25
2018-03-11T06:05:50.200Z,19.24
2018-03-11T06:06:50.234Z,19.29
2018-03-11T06:07:50.189Z,19.26
2018-03-11T06:08:50.222Z,19.28
2018-03-11T06:09:50.231Z,19.33
2018-03-11T06:10:50.226Z,19.3
2018-03-11T06:11:50.209Z,19.3
2018-03-11T06:12:50.197Z,19.34
2018-03-11T06:13:50.192Z,19.31
2018-03-11T06:14:50.220Z,19.31
2018-03-11T06:15:50.194Z,19.35
2018-03-11T06:16:50.252Z,19.32
2018-03-11T06:17:50.224Z,19.32
2018-03-11T06:18:50.195Z,19.35
2018-03-11T06:19:50.197Z,19.33
2018-03-11T06:20:50.197Z,19.34
2018-03-11T06:21:50.202Z,19.37
2018-03-11T06:22:50.225Z,19.34
2018-03-11T06:23:50.197Z,19.35
2018-03-11T06:24:50.234Z,19.4
2018-03-11T06:25:50.198Z,19.36
2018-03-11T06:26:50.185Z,19.38
2018-03-11T06:27:50.179Z,19.41
2018-03-11T06:28:50.197Z,19.39
2018-03-11T06:29:50.251Z,19.4
2018-03-11T06:30:50.195Z,19.45
2018-03-11T06:31:50.189Z,19.42
2018-03-11T06:32:50.183Z,19.43
2018-03-11T06:33:50.192Z,19.47
2018-03-11T06:34:50.223Z,19.43
2018-03-11T06:35:50.213Z,19.43
2018-03-11T06:36:50.206Z,19.48
2018-03-11T06:37:50.194Z,19.46
2018-03-11T06:38:50.187Z,19.46
2018-03-11T06:39:50.185Z,19.49
2018-03-11T06:40:50.216Z,19.48
2018-03-11T06:41:50.202Z,19.48
2018-03-11T06:42:50.203Z,19.52
2018-03-11T06:43:50.186Z,19.49
2018-03-11T06:44:50.185Z,19.48
2018-03-11T06:45:50.191Z,19.53
2018-03-11T06:46:50.194Z,19.51
2018-03-11T06:47:50.190Z,19.5
2018-03-11T06:48:50.195Z,19.55
2018-03-11T06:49:50.149Z,19.53
2018-03-11T06:50:50.179Z,19.52
2018-03-11T06:51:50.190Z,19.55
2018-03-11T06:52:50.186Z,19.55
2018-03-11T06:53:50.186Z,19.55
2018-03-11T06:54:50.187Z,19.6
2018-03-11T06:55:50.181Z,19.56
2018-03-11T06:56:50.194Z,19.58
2018-03-11T06:57:50.184Z,19.62
2018-03-11T06:58:50.182Z,19.6
2018-03-11T06:59:50.198Z,19.6
2018-03-11T07:00:50.170Z,19.64
2018-03-11T07:01:50.170Z,19.61
2018-03-11T07:02:50.202Z,19.61
2018-03-11T07:03:50.252Z,19.68
2018-03-11T07:04:50.179Z,19.65
2018-03-11T07:05:50.171Z,19.64
2018-03-11T07:06:50.185Z,19.67
2018-03-11T07:07:50.203Z,19.66
2018-03-11T07:08:50.186Z,19.66
2018-03-11T07:09:50.200Z,19.72
2018-03-11T07:10:50.224Z,19.68
2018-03-11T07:11:50.179Z,19.67
2018-03-11T07:12:50.172Z,19.73
2018-03-11T07:13:50.201Z,19.69
2018-03-11T07:14:50.183Z,19.7
2018-03-11T07:15:50.167Z,19.74
2018-03-11T07:16:50.169Z,19.71
2018-03-11T07:17:50.204Z,19.7
2018-03-11T07:18:50.215Z,19.73
2018-03-11T07:19:50.178Z,19.72
2018-03-11T07:20:50.184Z,19.7
2018-03-11T07:21:50.167Z,19.75
2018-03-11T07:22:50.437Z,19.72
2018-03-11T07:23:50.168Z,19.7
2018-03-11T07:24:50.208Z,19.76
2018-03-11T07:25:50.178Z,19.71
2018-03-11T07:26:50.173Z,19.72
2018-03-11T07:27:50.428Z,19.76
2018-03-11T07:28:50.174Z,19.73
2018-03-11T07:29:50.167Z,19.73
2018-03-11T07:30:50.186Z,19.76
2018-03-11T07:31:50.171Z,19.74
2018-03-11T07:32:50.202Z,19.74
2018-03-11T07:33:50.175Z,19.8
2018-03-11T07:34:50.168Z,19.76
2018-03-11T07:35:50.153Z,19.76
2018-03-11T07:36:50.162Z,19.8
2018-03-11T07:37:50.533Z,19.76
2018-03-11T07:38:50.259Z,19.77
2018-03-11T07:39:50.174Z,19.82
2018-03-11T07:40:50.168Z,19.81
2018-03-11T07:41:50.159Z,19.8
2018-03-11T07:42:50.193Z,19.83
2018-03-11T07:43:50.179Z,19.82
2018-03-11T07:44:50.212Z,19.82
2018-03-11T07:45:50.185Z,19.85
2018-03-11T07:46:50.180Z,19.83
2018-03-11T07:47:50.213Z,19.83
2018-03-11T07:48:50.183Z,19.87
2018-03-11T07:49:50.188Z,19.85
2018-03-11T07:50:50.236Z,19.83
2018-03-11T07:51:50.208Z,19.88
2018-03-11T07:52:50.201Z,19.85
2018-03-11T07:53:50.213Z,19.85
2018-03-11T07:54:50.182Z,19.9
2018-03-11T07:55:50.175Z,19.88
2018-03-11T07:56:50.180Z,19.87
2018-03-11T07:57:50.174Z,19.93
2018-03-11T07:58:50.172Z,19.89
2018-03-11T07:59:50.196Z,19.88
2018-03-11T08:00:50.185Z,19.93
2018-03-11T08:01:50.225Z,19.9
2018-03-11T08:02:50.509Z,19.88
2018-03-11T08:03:50.175Z,19.91
2018-03-11T08:04:50.204Z,19.89
2018-03-11T08:05:50.190Z,19.89
2018-03-11T08:06:50.177Z,19.93
2018-03-11T08:07:50.201Z,19.91
2018-03-11T08:08:50.168Z,19.91
2018-03-11T08:09:50.174Z,19.95
2018-03-11T08:10:50.176Z,19.92
2018-03-11T08:11:50.188Z,19.91
2018-03-11T08:12:50.191Z,19.95
2018-03-11T08:13:50.167Z,19.92
2018-03-11T08:14:50.167Z,19.9
2018-03-11T08:15:50.174Z,19.93
2018-03-11T08:16:50.168Z,19.82
2018-03-11T08:17:50.197Z,19.79
2018-03-11T08:18:50.201Z,19.82
2018-03-11T08:19:50.173Z,19.82
2018-03-11T08:20:50.171Z,19.84
2018-03-11T08:21:50.170Z,19.9
2018-03-11T08:22:50.209Z,19.87
2018-03-11T08:23:50.177Z,19.88
2018-03-11T08:24:50.171Z,19.94
2018-03-11T08:25:50.214Z,19.92
2018-03-11T08:26:50.174Z,19.91
2018-03-11T08:27:50.196Z,19.96
2018-03-11T08:28:50.184Z,19.94
2018-03-11T08:29:50.177Z,19.94
2018-03-11T08:30:50.170Z,19.97
2018-03-11T08:31:50.184Z,19.96
2018-03-11T08:32:50.173Z,19.95
2018-03-11T08:33:50.171Z,20
2018-03-11T08:34:50.157Z,19.96
2018-03-11T08:35:50.166Z,20
2018-03-11T08:36:50.174Z,19.99
2018-03-11T08:37:50.165Z,19.98
2018-03-11T08:38:50.171Z,19.95
2018-03-11T08:39:50.198Z,19.99
2018-03-11T08:40:50.223Z,20.03
2018-03-11T08:41:50.221Z,20
2018-03-11T08:42:50.324Z,20.02
2018-03-11T08:43:50.143Z,20.01
2018-03-11T08:44:50.215Z,20.02
2018-03-11T08:45:50.161Z,20.03
2018-03-11T08:46:50.162Z,20.03
2018-03-11T08:47:50.156Z,20.06
2018-03-11T08:48:50.159Z,20.08
2018-03-11T08:49:50.324Z,20.08
2018-03-11T08:50:50.171Z,20.09
2018-03-11T08:51:50.160Z,20.17
2018-03-11T08:52:50.241Z,20.21
2018-03-11T08:53:50.204Z,20.19
2018-03-11T08:54:50.195Z,20.22
2018-03-11T08:55:50.299Z,20.21
2018-03-11T08:56:50.169Z,20.26
2018-03-11T08:57:50.168Z,20.3
2018-03-11T08:58:50.166Z,20.28
2018-03-11T08:59:50.170Z,20.27
2018-03-11T09:00:50.170Z,20.31
2018-03-11T09:01:50.180Z,20.31
2018-03-11T09:02:50.170Z,20.3
2018-03-11T09:03:50.161Z,20.33
2018-03-11T09:04:50.186Z,20.3
2018-03-11T09:05:50.162Z,20.28
2018-03-11T09:06:50.157Z,20.31
2018-03-11T09:07:50.146Z,20.3
2018-03-11T09:08:50.003Z,20.29
2018-03-11T09:09:50.195Z,20.34
2018-03-11T09:10:50.166Z,20.33
2018-03-11T09:11:50.160Z,20.34
2018-03-11T09:12:50.160Z,20.36
2018-03-11T09:13:50.201Z,20.35
2018-03-11T09:14:50.139Z,20.35
2018-03-11T09:15:50.176Z,20.37
2018-03-11T09:16:50.145Z,20.35
2018-03-11T09:17:50.160Z,20.36
2018-03-11T09:18:50.148Z,20.39
2018-03-11T09:19:50.162Z,20.42
2018-03-11T09:20:50.438Z,20.45
2018-03-11T09:21:50.158Z,20.45
2018-03-11T09:22:50.159Z,20.43
2018-03-11T09:23:50.168Z,20.41
2018-03-11T09:24:50.185Z,20.45
2018-03-11T09:25:50.181Z,20.44
2018-03-11T09:26:50.151Z,20.45
2018-03-11T09:27:50.170Z,20.49
2018-03-11T09:28:50.188Z,20.45
2018-03-11T09:29:50.158Z,20.46
2018-03-11T09:30:50.182Z,20.49
2018-03-11T09:31:50.141Z,20.47
2018-03-11T09:32:50.159Z,20.46
2018-03-11T09:33:50.153Z,20.5
2018-03-11T09:34:50.158Z,20.49
2018-03-11T09:35:50.176Z,20.48
2018-03-11T09:36:50.150Z,20.5
2018-03-11T09:37:50.147Z,20.5
2018-03-11T09:38:50.270Z,20.5
2018-03-11T09:39:50.255Z,20.54
2018-03-11T09:40:50.192Z,20.52
2018-03-11T09:41:50.148Z,20.53
2018-03-11T09:42:50.146Z,20.55
2018-03-11T09:43:50.160Z,20.5
2018-03-11T09:44:50.144Z,20.49
2018-03-11T09:45:50.176Z,20.51
2018-03-11T09:46:50.143Z,20.48
2018-03-11T09:47:50.163Z,20.46
2018-03-11T09:48:50.163Z,20.47
2018-03-11T09:49:50.145Z,20.45
2018-03-11T09:50:50.153Z,20.44
2018-03-11T09:51:50.149Z,20.44
2018-03-11T09:52:50.147Z,20.42
2018-03-11T09:53:50.161Z,20.42
2018-03-11T09:54:50.155Z,20.43
2018-03-11T09:55:50.140Z,20.43
2018-03-11T09:56:50.199Z,20.42
2018-03-11T09:57:50.144Z,20.43
2018-03-11T09:58:50.152Z,20.41
2018-03-11T09:59:50.144Z,20.39
2018-03-11T10:00:50.013Z,20.43
2018-03-11T10:01:50.140Z,20.4
2018-03-11T10:02:50.178Z,20.4
2018-03-11T10:03:50.137Z,20.4
2018-03-11T10:04:50.150Z,20.4
2018-03-11T10:05:50.145Z,20.41
2018-03-11T10:06:50.139Z,20.42
2018-03-11T10:07:50.159Z,20.43
2018-03-11T10:08:50.147Z,20.46
2018-03-11T10:09:50.125Z,20.49
2018-03-11T10:10:50.148Z,20.48
2018-03-11T10:11:50.171Z,20.5
2018-03-11T10:12:50.152Z,20.52
2018-03-11T10:13:50.162Z,20.5
2018-03-11T10:14:50.126Z,20.49
2018-03-11T10:15:34.210Z,20.73
2018-03-11T10:16:34.194Z,20.81
2018-03-11T10:17:34.180Z,20.88
2018-03-11T10:18:34.143Z,20.95
2018-03-11T10:19:34.132Z,20.91
2018-03-11T10:20:34.186Z,20.92
2018-03-11T10:21:34.164Z,20.92
2018-03-11T10:22:34.150Z,20.92
2018-03-11T10:23:34.143Z,20.93
2018-03-11T10:24:34.159Z,20.96
2018-03-11T10:25:34.133Z,20.95
2018-03-11T10:26:34.130Z,21
2018-03-11T10:27:34.137Z,21.03
2018-03-11T10:28:34.129Z,21
2018-03-11T10:29:34.148Z,21.02
2018-03-11T10:30:34.138Z,21.03
2018-03-11T10:31:34.137Z,21.04
2018-03-11T10:32:34.137Z,21.05
2018-03-11T10:33:52.038Z,21.26
2018-03-11T10:33:58.799Z,21.24
2018-03-11T10:34:27.930Z,21.43
2018-03-11T10:35:28.042Z,21.36
2018-03-11T10:36:27.901Z,21.28
2018-03-11T10:37:27.969Z,21.24
2018-03-11T10:38:27.886Z,21.21
2018-03-11T10:39:27.940Z,21.18
2018-03-11T10:40:27.894Z,21.24
2018-03-11T10:41:27.894Z,21.41
2018-03-11T10:42:27.944Z,21.4
2018-03-11T10:43:27.920Z,21.4
2018-03-11T10:44:27.951Z,21.4
2018-03-11T10:45:27.902Z,21.41
2018-03-11T10:46:27.893Z,21.39
2018-03-11T10:47:28.170Z,21.39
2018-03-11T10:48:27.901Z,21.37
2018-03-11T10:49:27.916Z,21.37
2018-03-11T10:50:27.904Z,21.36
2018-03-11T10:51:27.907Z,21.36
2018-03-11T10:52:27.903Z,21.36
2018-03-11T10:53:27.921Z,21.3
2018-03-11T11:55:34.975Z,20.92
2018-03-11T11:56:34.978Z,20.94
2018-03-11T11:57:34.980Z,20.95
2018-03-11T11:58:35.187Z,20.93
2018-03-11T11:59:20.602Z,20.95
2018-03-11T12:00:20.605Z,21
2018-03-11T12:01:20.610Z,21.03
2018-03-11T12:02:20.607Z,20.97
2018-03-11T12:03:20.632Z,20.97
2018-03-11T12:04:20.607Z,20.95
2018-03-11T12:05:20.613Z,20.92
2018-03-11T12:06:20.604Z,20.91
2018-03-11T12:07:20.607Z,20.92
2018-03-11T12:08:20.609Z,20.87
2018-03-11T12:09:20.610Z,20.87
2018-03-11T12:10:20.611Z,20.87
2018-03-11T12:11:20.659Z,20.84
2018-03-11T12:12:20.612Z,20.86
2018-03-11T12:40:30.824Z,21.05
2018-03-11T12:41:30.829Z,21.1
2018-03-11T12:42:30.832Z,21.11
2018-03-11T12:43:30.938Z,21
2018-03-11T12:44:30.827Z,21.04
2018-03-11T12:45:30.851Z,21.03
2018-03-11T12:46:30.831Z,20.93
2018-03-11T12:47:30.844Z,20.95
2018-03-11T12:48:30.833Z,20.94
2018-03-11T12:49:30.840Z,20.85
2018-03-11T12:50:30.834Z,20.87
2018-03-11T12:51:30.833Z,20.86
2018-03-11T12:52:30.833Z,20.79
2018-03-11T12:53:30.835Z,20.8
2018-03-11T12:54:30.835Z,20.8
2018-03-11T12:55:30.865Z,20.72
2018-03-11T12:56:30.838Z,20.73
2018-03-11T12:57:30.836Z,20.74
2018-03-11T12:58:30.891Z,20.67
2018-03-11T12:59:30.839Z,20.7
2018-03-11T13:00:30.857Z,20.69
2018-03-11T13:01:30.837Z,20.62
2018-03-11T13:02:30.838Z,20.65
2018-03-11T13:03:30.837Z,20.65
2018-03-11T13:04:30.838Z,20.6
2018-03-11T13:05:30.838Z,20.61
2018-03-11T13:06:30.859Z,20.62
2018-03-11T13:07:30.841Z,20.56
2018-03-11T13:08:31.141Z,20.59
2018-03-11T13:09:30.850Z,20.59
2018-03-11T13:10:30.839Z,20.54
2018-03-11T13:11:30.842Z,20.58
2018-03-11T13:12:30.841Z,20.58
2018-03-11T13:13:30.953Z,20.52
2018-03-11T13:14:30.864Z,20.53
2018-03-11T13:15:30.870Z,20.54
2018-03-11T13:16:30.904Z,20.49
2018-03-11T13:17:30.850Z,20.54
2018-03-11T13:18:30.842Z,20.55
2018-03-11T13:19:30.968Z,20.5
2018-03-11T13:20:30.843Z,20.53
2018-03-11T13:21:22.952Z,20.53
2018-03-11T13:31:46.599Z,20.68
2018-03-11T13:31:59.197Z,20.66
2018-03-11T13:32:14.929Z,20.67
2018-03-11T13:32:39.768Z,20.66
2018-03-11T13:33:39.768Z,20.71
2018-03-11T13:34:39.771Z,20.75
2018-03-11T13:35:40.819Z,20.68
2018-03-11T13:36:40.820Z,20.76
2018-03-11T13:37:40.819Z,20.76
2018-03-11T13:38:08.203Z,20.76
2018-03-11T13:46:03.338Z,20.62
2018-03-11T13:46:18.266Z,20.61
2018-03-11T13:47:18.344Z,20.58
2018-03-11T13:57:47.505Z,20.63
2018-03-11T13:58:47.475Z,20.67
2018-03-11T13:59:47.500Z,20.7
2018-03-11T14:00:47.417Z,20.73
2018-03-11T14:01:47.482Z,20.72
2018-03-11T14:02:47.466Z,20.75
2018-03-11T14:03:47.723Z,20.77
2018-03-11T14:04:47.537Z,20.75
2018-03-11T14:05:47.473Z,20.79
2018-03-11T14:06:47.433Z,20.81
2018-03-11T14:07:47.472Z,20.79
2018-03-11T14:08:47.475Z,20.83
2018-03-11T14:09:47.447Z,20.85
2018-03-11T14:10:47.463Z,20.82
2018-03-11T14:11:47.463Z,20.86
2018-03-11T14:12:47.440Z,20.89
2018-03-11T14:13:47.475Z,20.87
2018-03-11T14:14:47.487Z,20.91
2018-03-11T14:15:47.436Z,20.92
2018-03-11T14:16:47.478Z,20.91
2018-03-11T14:17:47.466Z,20.93
2018-03-11T14:18:47.431Z,20.95
2018-03-11T14:19:47.485Z,20.97
2018-03-11T14:20:47.445Z,21
2018-03-11T14:21:47.460Z,21.08
2018-03-11T14:22:47.474Z,21.07
2018-03-11T14:23:47.472Z,21.09
2018-03-11T14:24:47.445Z,21.06
2018-03-11T14:25:47.493Z,21.03
2018-03-11T14:26:47.465Z,21.06
2018-03-11T14:27:47.436Z,21.11
2018-03-11T14:28:47.553Z,21.04
2018-03-11T14:29:47.466Z,21.1
2018-03-11T14:30:47.429Z,21.15
2018-03-11T14:31:47.485Z,21.06
2018-03-11T14:32:47.464Z,21.09
2018-03-11T14:33:47.441Z,21.09
2018-03-11T14:34:47.518Z,21.01
2018-03-11T14:35:47.459Z,21.05
2018-03-11T14:36:47.459Z,21.08
2018-03-11T14:37:47.498Z,21.01
2018-03-11T14:38:47.468Z,20.98
2018-03-11T14:39:47.485Z,21.01
2018-03-11T14:40:47.557Z,20.98
2018-03-11T14:41:47.451Z,21.01
2018-03-11T14:42:47.451Z,21.01
2018-03-11T14:43:47.510Z,20.96
2018-03-11T14:44:47.432Z,20.98
2018-03-11T14:45:47.441Z,21